Time;durP1;ratioP1;P1;durP2;ratioP2;P2;SDS_P1;SDS_P2;PMS_P1;PMS_P2;Temp;Humidity;BMP_temperature;BMP_pressure;BME280_temperature;BME280_humidity;BME280_pressure;Samples;Min_cycle;Max_cycle;Signal;HPM_P1;HPM_P2
2022/10/14 00:00:35;;;;;;;108.35;15.50;;;;;;;;;;5118506;27;20395;-70
2022/10/14 00:03:02;;;;;;;187.07;17.85;;;;;;;;;;5115985;27;20458;-75
2022/10/14 00:05:28;;;;;;;50.13;11.57;;;;;;;;;;5112630;28;20496;-75
2022/10/14 00:07:54;;;;;;;122.45;15.93;;;;;;;;;;5095066;28;20129;-75
2022/10/14 00:10:20;;;;;;;107.13;14.18;;;;;;;;;;5103633;28;20043;-75
2022/10/14 00:12:47;;;;;;;87.78;13.77;;;;;;;;;;5116960;27;20061;-75
2022/10/14 00:15:13;;;;;;;167.57;17.70;;;;;;;;;;5112109;28;20036;-75
2022/10/14 00:17:39;;;;;;;61.00;13.07;;;;;;;;;;5095049;28;20488;-75
2022/10/14 00:20:06;;;;;;;103.60;14.93;;;;;;;;;;5111994;28;20116;-75
2022/10/14 00:22:32;;;;;;;218.85;19.55;;;;;;;;;;5114610;27;20059;-76
2022/10/14 00:24:58;;;;;;;285.38;22.65;;;;;;;;;;5091882;28;20087;-75
2022/10/14 00:27:24;;;;;;;502.00;28.83;;;;;;;;;;5111179;28;20036;-76
2022/10/14 00:29:50;;;;;;;325.17;23.45;;;;;;;;;;5111876;28;20130;-75
2022/10/14 00:32:16;;;;;;;197.75;19.17;;;;;;;;;;5116102;27;20470;-75
2022/10/14 00:34:42;;;;;;;321.27;23.85;;;;;;;;;;5094502;28;20498;-75
2022/10/14 00:37:08;;;;;;;294.35;23.48;;;;;;;;;;5107179;28;20484;-75
2022/10/14 00:39:35;;;;;;;414.13;26.10;;;;;;;;;;5113280;28;20082;-75
2022/10/14 00:42:01;;;;;;;208.75;20.40;;;;;;;;;;5111829;28;20075;-75
2022/10/14 00:44:27;;;;;;;475.98;27.77;;;;;;;;;;5130099;27;20039;-75
2022/10/14 00:46:54;;;;;;;122.68;18.67;;;;;;;;;;5121568;27;20035;-76
2022/10/14 00:49:23;;;;;;;352.05;25.50;;;;;;;;;;5112561;28;20039;-75
2022/10/14 00:51:54;;;;;;;413.00;28.50;;;;;;;;;;5094277;28;20039;-75
2022/10/14 00:54:22;;;;;;;345.95;25.73;;;;;;;;;;5130144;27;20504;-76
2022/10/14 00:56:49;;;;;;;273.85;24.48;;;;;;;;;;5115953;27;20395;-71
2022/10/14 00:59:15;;;;;;;343.40;25.33;;;;;;;;;;5114692;27;20046;-71
2022/10/14 01:01:41;;;;;;;353.52;24.55;;;;;;;;;;5094571;28;20481;-71
2022/10/14 01:04:07;;;;;;;279.92;24.70;;;;;;;;;;5110569;27;20156;-70
2022/10/14 01:06:48;;;;;;;375.15;25.58;;;;;;;;;;5103701;27;20511;-71
2022/10/14 01:09:30;;;;;;;337.90;25.35;;;;;;;;;;5114825;27;20035;-70
2022/10/14 01:11:56;;;;;;;387.77;26.83;;;;;;;;;;5132904;27;20043;-70
2022/10/14 01:14:28;;;;;;;473.48;29.45;;;;;;;;;;5133276;27;20043;-71
2022/10/14 01:16:59;;;;;;;439.83;27.63;;;;;;;;;;5092018;28;20036;-71
2022/10/14 01:19:37;;;;;;;534.60;31.13;;;;;;;;;;5097636;28;20035;-71
2022/10/14 01:22:03;;;;;;;445.85;27.73;;;;;;;;;;5114138;28;20043;-71
2022/10/14 01:24:43;;;;;;;511.92;29.13;;;;;;;;;;5133550;27;20038;-71
2022/10/14 01:27:21;;;;;;;340.23;24.98;;;;;;;;;;5114546;28;20039;-70
2022/10/14 01:29:53;;;;;;;285.92;22.33;;;;;;;;;;5114192;28;20043;-71
2022/10/14 01:32:23;;;;;;;417.17;26.92;;;;;;;;;;5097502;28;20118;-71
2022/10/14 01:34:55;;;;;;;310.98;23.58;;;;;;;;;;5099052;27;20047;-70
2022/10/14 01:37:23;;;;;;;473.67;27.40;;;;;;;;;;5114310;28;20035;-71
2022/10/14 01:39:52;;;;;;;318.48;23.15;;;;;;;;;;5090950;28;20044;-70
2022/10/14 01:42:21;;;;;;;339.40;24.20;;;;;;;;;;5090067;28;20129;-70
2022/10/14 01:44:50;;;;;;;369.88;24.73;;;;;;;;;;5121147;28;20052;-71
2022/10/14 01:47:18;;;;;;;233.40;21.50;;;;;;;;;;5135442;27;20119;-75
2022/10/14 01:49:47;;;;;;;344.00;24.52;;;;;;;;;;5113952;28;20039;-75
2022/10/14 01:52:21;;;;;;;368.38;25.95;;;;;;;;;;5114485;28;20129;-76
2022/10/14 01:54:49;;;;;;;390.38;25.63;;;;;;;;;;5133264;27;20134;-75
2022/10/14 01:57:18;;;;;;;327.88;25.50;;;;;;;;;;5133958;27;20071;-75
2022/10/14 01:59:45;;;;;;;369.15;27.02;;;;;;;;;;5114191;28;20071;-71
2022/10/14 02:02:12;;;;;;;162.07;19.83;;;;;;;;;;5120722;28;20435;-75
2022/10/14 02:04:38;;;;;;;481.52;28.80;;;;;;;;;;5111420;27;20515;-75
2022/10/14 02:07:13;;;;;;;263.23;21.92;;;;;;;;;;5113192;28;20047;-75
2022/10/14 02:09:58;;;;;;;417.33;26.23;;;;;;;;;;5114123;28;20085;-75
2022/10/14 02:12:30;;;;;;;146.90;16.30;;;;;;;;;;5114440;28;20135;-75
2022/10/14 02:15:02;;;;;;;248.32;20.92;;;;;;;;;;5082968;27;20071;-75
2022/10/14 02:17:33;;;;;;;445.45;27.63;;;;;;;;;;5128420;28;20043;-75
2022/10/14 02:20:06;;;;;;;336.67;23.80;;;;;;;;;;5113945;28;20043;-75
2022/10/14 02:22:40;;;;;;;357.75;25.52;;;;;;;;;;5084051;28;20035;-75
2022/10/14 02:25:08;;;;;;;336.10;21.60;;;;;;;;;;5114055;27;20043;-76
2022/10/14 02:27:35;;;;;;;293.77;20.67;;;;;;;;;;5122970;27;20034;-71
2022/10/14 02:30:03;;;;;;;251.27;19.13;;;;;;;;;;5135981;27;20027;-71
2022/10/14 02:32:30;;;;;;;329.08;20.02;;;;;;;;;;5117497;27;20039;-76
2022/10/14 02:34:57;;;;;;;251.40;18.95;;;;;;;;;;5117318;27;20046;-71
2022/10/14 02:37:24;;;;;;;325.20;19.48;;;;;;;;;;5118524;27;20038;-70
2022/10/14 02:39:58;;;;;;;283.80;18.55;;;;;;;;;;5147363;27;20043;-75
2022/10/14 02:42:25;;;;;;;302.42;19.13;;;;;;;;;;5117675;27;20031;-75
2022/10/14 02:44:55;;;;;;;228.38;16.80;;;;;;;;;;5117635;27;20047;-75
2022/10/14 02:47:22;;;;;;;279.60;18.80;;;;;;;;;;5118571;27;20039;-75
2022/10/14 02:49:48;;;;;;;330.10;20.08;;;;;;;;;;5118646;27;20082;-75
2022/10/14 02:52:14;;;;;;;302.70;17.98;;;;;;;;;;5117213;27;20441;-75
2022/10/14 02:54:40;;;;;;;208.50;17.02;;;;;;;;;;5099333;27;20412;-75
2022/10/14 02:57:06;;;;;;;125.45;15.27;;;;;;;;;;5117109;27;20035;-75
2022/10/14 02:59:32;;;;;;;203.02;17.52;;;;;;;;;;5121793;27;20035;-75
2022/10/14 03:01:58;;;;;;;154.25;16.50;;;;;;;;;;5135149;27;20039;-71
2022/10/14 03:04:24;;;;;;;169.27;18.33;;;;;;;;;;5135703;27;20050;-71
2022/10/14 03:06:50;;;;;;;292.95;22.40;;;;;;;;;;5117059;27;20038;-71
2022/10/14 03:09:16;;;;;;;124.72;18.10;;;;;;;;;;5136243;27;20049;-71
2022/10/14 03:11:42;;;;;;;169.80;19.13;;;;;;;;;;5118034;27;20051;-71
2022/10/14 03:14:08;;;;;;;145.75;17.17;;;;;;;;;;5099825;27;20537;-72
2022/10/14 03:16:34;;;;;;;204.65;19.10;;;;;;;;;;5135705;27;20027;-71
2022/10/14 03:19:00;;;;;;;119.53;18.30;;;;;;;;;;5117718;27;20516;-71
2022/10/14 03:21:27;;;;;;;151.90;19.25;;;;;;;;;;5112786;27;20506;-75
2022/10/14 03:23:53;;;;;;;130.70;17.02;;;;;;;;;;5137491;27;20039;-72
2022/10/14 03:26:19;;;;;;;140.88;19.45;;;;;;;;;;5099509;27;20047;-72
2022/10/14 03:28:45;;;;;;;149.50;18.40;;;;;;;;;;5116622;27;20153;-72
2022/10/14 03:31:11;;;;;;;112.53;17.40;;;;;;;;;;5133142;27;20035;-72
2022/10/14 03:33:37;;;;;;;141.13;17.25;;;;;;;;;;5141157;27;20416;-71
2022/10/14 03:36:03;;;;;;;127.63;15.32;;;;;;;;;;5116354;27;20539;-72
2022/10/14 03:38:29;;;;;;;132.88;15.05;;;;;;;;;;5115900;27;20061;-76
2022/10/14 03:40:56;;;;;;;164.48;16.13;;;;;;;;;;5119261;27;20110;-72
2022/10/14 03:43:22;;;;;;;134.50;15.45;;;;;;;;;;5103728;28;20053;-71
2022/10/14 03:45:48;;;;;;;86.18;14.60;;;;;;;;;;5098423;27;20126;-71
2022/10/14 03:48:14;;;;;;;109.22;14.82;;;;;;;;;;5116048;27;20047;-76
2022/10/14 03:50:41;;;;;;;103.93;15.40;;;;;;;;;;5117240;27;20078;-76
2022/10/14 03:53:07;;;;;;;99.15;14.80;;;;;;;;;;5123247;27;20053;-75
2022/10/14 03:55:33;;;;;;;116.50;16.50;;;;;;;;;;5095712;28;20135;-76
2022/10/14 03:57:59;;;;;;;104.40;16.25;;;;;;;;;;5114535;27;20042;-76
2022/10/14 04:00:25;;;;;;;62.30;15.43;;;;;;;;;;5115175;27;20403;-76
2022/10/14 04:02:51;;;;;;;84.63;15.65;;;;;;;;;;5117613;27;20042;-75
2022/10/14 04:05:17;;;;;;;80.97;15.25;;;;;;;;;;5115076;27;20047;-76
2022/10/14 04:07:43;;;;;;;50.58;14.95;;;;;;;;;;5115185;27;20081;-71
2022/10/14 04:10:09;;;;;;;75.70;16.05;;;;;;;;;;5115848;27;20038;-71
2022/10/14 04:12:35;;;;;;;73.53;16.17;;;;;;;;;;5118062;27;20172;-71
2022/10/14 04:15:02;;;;;;;73.10;17.45;;;;;;;;;;5115418;27;20043;-71
2022/10/14 04:17:28;;;;;;;72.97;17.08;;;;;;;;;;5115501;27;20453;-71
2022/10/14 04:19:54;;;;;;;66.78;16.67;;;;;;;;;;5114687;27;20039;-71
2022/10/14 04:22:21;;;;;;;60.38;15.35;;;;;;;;;;5109586;27;20032;-71
2022/10/14 04:24:47;;;;;;;51.47;15.50;;;;;;;;;;5100826;27;20082;-75
2022/10/14 04:27:13;;;;;;;67.80;16.85;;;;;;;;;;5094536;28;20043;-71
2022/10/14 04:29:39;;;;;;;55.40;15.90;;;;;;;;;;5096995;28;20046;-71
2022/10/14 04:32:06;;;;;;;58.95;15.73;;;;;;;;;;5097069;27;20048;-71
2022/10/14 04:34:32;;;;;;;64.00;15.75;;;;;;;;;;5107160;27;20042;-70
2022/10/14 04:36:58;;;;;;;66.20;16.85;;;;;;;;;;5088615;28;20039;-75
2022/10/14 04:39:24;;;;;;;74.38;17.20;;;;;;;;;;5091852;27;20484;-75
2022/10/14 04:41:50;;;;;;;46.97;14.13;;;;;;;;;;5094644;28;20042;-76
2022/10/14 04:44:16;;;;;;;78.95;17.50;;;;;;;;;;5097730;27;20035;-75
2022/10/14 04:46:42;;;;;;;98.85;16.58;;;;;;;;;;5096754;28;20039;-77
2022/10/14 04:49:08;;;;;;;124.43;17.70;;;;;;;;;;5077278;28;20492;-76
2022/10/14 04:51:34;;;;;;;113.15;18.17;;;;;;;;;;5086562;28;20054;-76
2022/10/14 04:54:00;;;;;;;130.60;16.85;;;;;;;;;;5100065;27;20062;-75
2022/10/14 04:56:26;;;;;;;93.38;16.08;;;;;;;;;;5109300;27;20115;-75
2022/10/14 04:58:53;;;;;;;116.78;16.80;;;;;;;;;;5099581;28;20047;-76
2022/10/14 05:01:19;;;;;;;143.95;18.15;;;;;;;;;;5092066;27;20392;-76
2022/10/14 05:03:45;;;;;;;123.40;18.38;;;;;;;;;;5121386;27;20039;-75
2022/10/14 05:06:12;;;;;;;180.65;18.27;;;;;;;;;;5111037;28;20054;-75
2022/10/14 05:08:38;;;;;;;171.93;18.63;;;;;;;;;;5090528;28;20063;-75
2022/10/14 05:11:04;;;;;;;129.02;16.65;;;;;;;;;;5091171;28;20047;-75
2022/10/14 05:13:30;;;;;;;165.23;16.83;;;;;;;;;;5092347;28;20054;-75
2022/10/14 05:15:56;;;;;;;252.55;19.23;;;;;;;;;;5107991;28;20100;-75
2022/10/14 05:18:22;;;;;;;209.13;18.48;;;;;;;;;;5096383;28;20046;-77
2022/10/14 05:20:48;;;;;;;148.77;16.45;;;;;;;;;;5104641;28;20071;-75
2022/10/14 05:23:14;;;;;;;144.73;17.13;;;;;;;;;;5103461;28;20547;-76
2022/10/14 05:25:41;;;;;;;219.57;18.73;;;;;;;;;;5092123;28;20035;-76
2022/10/14 05:28:07;;;;;;;214.73;18.23;;;;;;;;;;5094175;28;20472;-76
2022/10/14 05:30:33;;;;;;;191.38;19.77;;;;;;;;;;5094243;28;20104;-76
2022/10/14 05:32:59;;;;;;;264.55;20.40;;;;;;;;;;5108241;28;20105;-77
2022/10/14 05:35:26;;;;;;;323.20;22.27;;;;;;;;;;5100570;28;20056;-76
2022/10/14 05:37:55;;;;;;;296.05;21.42;;;;;;;;;;5093834;28;20492;-77
2022/10/14 05:40:24;;;;;;;238.65;20.45;;;;;;;;;;5097116;28;20071;-70
2022/10/14 05:42:50;;;;;;;266.80;21.52;;;;;;;;;;5102101;28;20043;-70
2022/10/14 05:45:16;;;;;;;271.60;19.27;;;;;;;;;;5099959;28;20039;-70
2022/10/14 05:47:45;;;;;;;353.08;23.60;;;;;;;;;;5101479;28;20512;-70
2022/10/14 05:50:11;;;;;;;311.50;22.75;;;;;;;;;;5107137;28;20114;-70
2022/10/14 05:52:39;;;;;;;300.77;22.40;;;;;;;;;;5093023;28;20132;-70
2022/10/14 05:55:06;;;;;;;335.60;22.40;;;;;;;;;;5131243;27;20047;-78
2022/10/14 05:57:32;;;;;;;266.88;20.67;;;;;;;;;;5093901;28;20501;-78
2022/10/14 05:59:58;;;;;;;363.15;23.42;;;;;;;;;;5093646;28;20071;-70
2022/10/14 06:02:25;;;;;;;237.25;21.95;;;;;;;;;;5133177;27;20036;-70
2022/10/14 06:04:51;;;;;;;332.55;23.63;;;;;;;;;;5093081;27;20043;-78
2022/10/14 06:07:17;;;;;;;333.45;23.33;;;;;;;;;;5107886;27;20039;-78
2022/10/14 06:09:44;;;;;;;199.27;18.98;;;;;;;;;;5108878;27;20031;-80
2022/10/14 06:12:10;;;;;;;231.65;21.40;;;;;;;;;;5089563;27;20065;-71
2022/10/14 06:14:39;;;;;;;220.63;19.98;;;;;;;;;;5136628;27;20078;-71
2022/10/14 06:17:06;;;;;;;212.55;20.10;;;;;;;;;;5139029;27;20395;-74
2022/10/14 06:19:32;;;;;;;164.50;19.25;;;;;;;;;;5112494;27;20035;-71
2022/10/14 06:21:58;;;;;;;207.73;20.85;;;;;;;;;;5125919;27;20031;-71
2022/10/14 06:24:24;;;;;;;190.20;20.45;;;;;;;;;;5105685;27;20042;-69
2022/10/14 06:26:50;;;;;;;91.60;17.77;;;;;;;;;;5097515;28;20044;-70
2022/10/14 06:29:17;;;;;;;161.85;21.25;;;;;;;;;;5079624;28;20043;-70
2022/10/14 06:31:43;;;;;;;159.13;19.65;;;;;;;;;;5121317;27;20440;-70
2022/10/14 06:34:09;;;;;;;178.02;21.50;;;;;;;;;;5098977;27;20039;-70
2022/10/14 06:36:36;;;;;;;149.82;20.05;;;;;;;;;;5087668;27;20035;-71
2022/10/14 06:39:03;;;;;;;158.90;20.48;;;;;;;;;;5095278;27;20043;-70
2022/10/14 06:41:31;;;;;;;106.65;18.30;;;;;;;;;;5094389;27;20042;-70
2022/10/14 06:43:57;;;;;;;162.70;20.65;;;;;;;;;;5104623;27;20057;-70
2022/10/14 06:46:24;;;;;;;198.55;22.55;;;;;;;;;;5110849;27;20093;-70
2022/10/14 06:48:50;;;;;;;173.38;21.98;;;;;;;;;;5119210;27;20084;-70
2022/10/14 06:51:17;;;;;;;117.93;19.15;;;;;;;;;;5092971;27;20439;-70
2022/10/14 06:53:43;;;;;;;112.20;20.67;;;;;;;;;;5121525;27;20055;-70
2022/10/14 06:56:10;;;;;;;103.68;19.88;;;;;;;;;;5105384;27;20035;-70
2022/10/14 06:58:36;;;;;;;138.23;20.65;;;;;;;;;;5100599;28;20118;-70
2022/10/14 07:01:06;;;;;;;123.35;20.58;;;;;;;;;;5097012;28;20045;-70
2022/10/14 07:03:38;;;;;;;111.70;20.08;;;;;;;;;;5109549;27;20042;-70
2022/10/14 07:06:06;;;;;;;71.78;18.90;;;;;;;;;;5096636;28;20040;-71
2022/10/14 07:08:32;;;;;;;97.53;19.25;;;;;;;;;;5111145;28;20381;-70
2022/10/14 07:10:58;;;;;;;92.25;20.98;;;;;;;;;;5111719;27;20043;-70
2022/10/14 07:13:25;;;;;;;77.50;20.00;;;;;;;;;;5109634;27;21580;-69
2022/10/14 07:15:51;;;;;;;86.22;20.15;;;;;;;;;;5114057;27;20066;-70
2022/10/14 07:18:17;;;;;;;110.20;21.98;;;;;;;;;;5113199;28;20046;-70
2022/10/14 07:20:44;;;;;;;78.97;19.75;;;;;;;;;;5112501;27;20066;-69
2022/10/14 07:23:10;;;;;;;74.57;19.65;;;;;;;;;;5097636;28;20047;-76
2022/10/14 07:25:37;;;;;;;102.22;21.48;;;;;;;;;;5098597;27;20076;-76
2022/10/14 07:28:03;;;;;;;94.80;21.45;;;;;;;;;;5109474;27;20039;-76
2022/10/14 07:30:29;;;;;;;79.22;20.30;;;;;;;;;;5092657;28;20046;-76
2022/10/14 07:32:55;;;;;;;77.28;21.23;;;;;;;;;;5094151;28;20559;-70
2022/10/14 07:35:21;;;;;;;80.13;20.63;;;;;;;;;;5078722;28;20046;-70
2022/10/14 07:37:49;;;;;;;84.90;20.98;;;;;;;;;;5091496;27;20129;-70
2022/10/14 07:40:15;;;;;;;81.75;21.05;;;;;;;;;;5099855;27;20161;-70
2022/10/14 07:42:41;;;;;;;73.15;21.15;;;;;;;;;;5092473;28;20043;-70
2022/10/14 07:45:08;;;;;;;69.45;21.67;;;;;;;;;;5097916;28;20040;-70
2022/10/14 07:47:34;;;;;;;79.22;20.98;;;;;;;;;;5099148;27;20129;-70
2022/10/14 07:50:01;;;;;;;77.50;21.80;;;;;;;;;;5095994;27;20572;-70
2022/10/14 07:52:27;;;;;;;75.63;21.05;;;;;;;;;;5092447;28;20048;-70
2022/10/14 07:54:53;;;;;;;73.20;22.30;;;;;;;;;;5074795;28;20051;-70
2022/10/14 07:57:19;;;;;;;74.20;22.75;;;;;;;;;;5103584;27;20044;-70
2022/10/14 07:59:45;;;;;;;79.75;22.17;;;;;;;;;;5104332;28;20438;-70
2022/10/14 08:02:12;;;;;;;77.45;22.35;;;;;;;;;;5092359;28;20040;-70
2022/10/14 08:04:38;;;;;;;75.80;20.42;;;;;;;;;;5089282;28;20040;-70
2022/10/14 08:07:04;;;;;;;83.45;23.13;;;;;;;;;;5101256;27;20127;-70
2022/10/14 08:09:30;;;;;;;99.15;24.20;;;;;;;;;;5107592;27;20043;-76
2022/10/14 08:11:56;;;;;;;109.72;25.05;;;;;;;;;;5094848;28;20070;-76
2022/10/14 08:14:22;;;;;;;95.15;26.52;;;;;;;;;;5103816;27;20051;-76
2022/10/14 08:16:48;;;;;;;93.13;25.25;;;;;;;;;;5083598;27;20122;-76
2022/10/14 08:19:14;;;;;;;82.85;25.33;;;;;;;;;;5089656;27;20036;-76
2022/10/14 08:21:41;;;;;;;94.90;23.75;;;;;;;;;;5096382;28;20048;-76
2022/10/14 08:24:07;;;;;;;111.13;28.02;;;;;;;;;;5093369;28;20044;-75
2022/10/14 08:26:48;;;;;;;86.47;26.35;;;;;;;;;;5119287;27;20043;-76
2022/10/14 08:29:14;;;;;;;91.28;26.58;;;;;;;;;;5105913;27;20040;-71
2022/10/14 08:31:40;;;;;;;88.70;26.23;;;;;;;;;;5095322;28;20047;-71
2022/10/14 08:34:06;;;;;;;90.68;25.75;;;;;;;;;;5101231;27;20040;-71
2022/10/14 08:36:32;;;;;;;84.70;25.17;;;;;;;;;;5088571;28;20549;-72
2022/10/14 08:38:58;;;;;;;77.07;24.38;;;;;;;;;;5100716;27;20388;-72
2022/10/14 08:41:24;;;;;;;77.45;23.77;;;;;;;;;;5125784;27;20039;-72
2022/10/14 08:43:57;;;;;;;69.30;23.33;;;;;;;;;;5111700;28;20421;-73
2022/10/14 08:46:24;;;;;;;66.13;21.50;;;;;;;;;;5112020;28;20051;-73
2022/10/14 08:48:55;;;;;;;72.85;21.40;;;;;;;;;;5111092;27;20040;-73
2022/10/14 08:51:23;;;;;;;59.30;20.27;;;;;;;;;;5112279;28;20476;-74
2022/10/14 08:53:51;;;;;;;61.33;20.42;;;;;;;;;;5111552;28;20044;-74
2022/10/14 08:56:18;;;;;;;55.92;19.35;;;;;;;;;;5088662;28;20489;-74
2022/10/14 08:58:49;;;;;;;54.40;17.30;;;;;;;;;;5090847;28;20040;-75
2022/10/14 09:01:20;;;;;;;48.63;17.13;;;;;;;;;;5111463;27;20032;-76
2022/10/14 09:03:46;;;;;;;46.92;17.35;;;;;;;;;;5094198;28;20497;-76
2022/10/14 09:06:24;;;;;;;42.80;15.65;;;;;;;;;;5079594;27;20039;-76
2022/10/14 09:08:51;;;;;;;41.58;15.68;;;;;;;;;;5093106;28;20039;-76
2022/10/14 09:11:18;;;;;;;38.85;15.38;;;;;;;;;;5102909;27;20068;-76
2022/10/14 09:13:46;;;;;;;36.35;14.13;;;;;;;;;;5096823;27;20039;-76
2022/10/14 09:16:15;;;;;;;31.55;13.23;;;;;;;;;;5085289;28;20396;-76
2022/10/14 09:18:45;;;;;;;31.77;12.95;;;;;;;;;;5119973;27;20058;-76
2022/10/14 09:21:22;;;;;;;30.40;13.18;;;;;;;;;;5092288;27;20499;-76
2022/10/14 09:23:49;;;;;;;31.85;13.43;;;;;;;;;;5089485;27;20031;-76
2022/10/14 09:26:18;;;;;;;30.42;12.98;;;;;;;;;;5100816;27;20044;-75
2022/10/14 09:28:45;;;;;;;33.20;13.43;;;;;;;;;;5099806;28;20075;-77
2022/10/14 09:31:12;;;;;;;29.55;12.57;;;;;;;;;;5120304;28;20044;-78
2022/10/14 09:33:39;;;;;;;34.13;13.27;;;;;;;;;;5113587;28;20041;-77
2022/10/14 09:36:06;;;;;;;26.85;11.95;;;;;;;;;;5119963;27;20092;-78
2022/10/14 09:38:32;;;;;;;29.50;12.45;;;;;;;;;;5130486;27;20038;-78
2022/10/14 09:40:59;;;;;;;31.55;12.68;;;;;;;;;;5099695;28;20459;-78
2022/10/14 09:43:26;;;;;;;31.77;12.95;;;;;;;;;;5114620;28;20035;-78
2022/10/14 09:46:01;;;;;;;30.45;12.65;;;;;;;;;;5114496;28;20035;-78
2022/10/14 09:48:36;;;;;;;32.63;13.55;;;;;;;;;;5117272;27;20043;-78
2022/10/14 09:51:04;;;;;;;28.13;12.40;;;;;;;;;;5124011;27;20113;-79
2022/10/14 09:53:32;;;;;;;30.02;12.95;;;;;;;;;;5118553;27;20048;-78
2022/10/14 09:56:00;;;;;;;30.48;12.80;;;;;;;;;;5118422;27;20491;-79
2022/10/14 09:58:36;;;;;;;22.20;10.27;;;;;;;;;;5116902;27;20391;-80
2022/10/14 10:01:02;;;;;;;27.27;12.02;;;;;;;;;;5119831;27;20035;-74
2022/10/14 10:03:31;;;;;;;28.77;12.25;;;;;;;;;;5118706;27;20487;-74
2022/10/14 10:06:08;;;;;;;24.65;11.68;;;;;;;;;;5122146;27;20046;-73
2022/10/14 10:08:36;;;;;;;25.85;11.88;;;;;;;;;;5119230;27;20031;-73
2022/10/14 10:11:04;;;;;;;24.65;11.30;;;;;;;;;;5107068;27;20039;-74
2022/10/14 10:13:35;;;;;;;24.63;11.00;;;;;;;;;;5121130;27;20089;-74
2022/10/14 10:16:03;;;;;;;26.00;11.68;;;;;;;;;;5106868;27;20039;-75
2022/10/14 10:18:30;;;;;;;28.20;12.27;;;;;;;;;;5121964;27;20125;-73
2022/10/14 10:21:05;;;;;;;23.40;10.50;;;;;;;;;;5117682;27;20049;-74
2022/10/14 10:23:33;;;;;;;23.98;11.10;;;;;;;;;;5137239;27;20117;-73
2022/10/14 10:26:16;;;;;;;24.02;10.40;;;;;;;;;;5108709;27;20039;-73
2022/10/14 10:28:46;;;;;;;23.25;10.80;;;;;;;;;;5114792;27;20035;-73
2022/10/14 10:31:12;;;;;;;20.00;10.25;;;;;;;;;;5105665;27;20556;-74
2022/10/14 10:33:45;;;;;;;20.17;9.88;;;;;;;;;;5103916;27;20039;-73
2022/10/14 10:36:41;;;;;;;22.33;10.30;;;;;;;;;;5107613;27;20065;-72
2022/10/14 10:39:23;;;;;;;20.88;10.57;;;;;;;;;;5046427;28;20092;-72
2022/10/14 10:42:04;;;;;;;20.45;9.85;;;;;;;;;;5114321;27;20042;-72
2022/10/14 10:44:41;;;;;;;21.23;9.98;;;;;;;;;;5113017;27;20046;-73
2022/10/14 10:47:07;;;;;;;25.48;10.70;;;;;;;;;;5106874;27;20485;-73
2022/10/14 10:49:52;;;;;;;23.10;9.95;;;;;;;;;;5116995;27;20104;-73
2022/10/14 10:52:24;;;;;;;21.25;10.45;;;;;;;;;;5110264;27;20040;-72
2022/10/14 10:54:50;;;;;;;21.23;9.80;;;;;;;;;;5107375;27;20048;-73
2022/10/14 10:57:36;;;;;;;21.10;9.40;;;;;;;;;;5114822;27;20096;-74
2022/10/14 11:00:02;;;;;;;23.70;10.35;;;;;;;;;;5098011;27;20044;-72
2022/10/14 11:02:43;;;;;;;21.83;9.82;;;;;;;;;;5113573;27;20038;-71
2022/10/14 11:05:22;;;;;;;20.52;9.40;;;;;;;;;;5103746;27;20039;-72
2022/10/14 11:13:24;;;;;;;23.35;10.48;;;;;;;;;;5100453;27;20114;-71
2022/10/14 11:16:06;;;;;;;23.23;9.95;;;;;;;;;;5096270;27;20075;-72
2022/10/14 11:18:44;;;;;;;22.88;9.43;;;;;;;;;;5117079;27;20193;-80
2022/10/14 11:21:20;;;;;;;23.90;9.68;;;;;;;;;;5116988;27;20082;-80
2022/10/14 11:24:08;;;;;;;20.67;9.25;;;;;;;;;;5106623;27;20506;-80
2022/10/14 11:26:55;;;;;;;23.08;9.80;;;;;;;;;;5118006;27;20078;-72
2022/10/14 11:29:40;;;;;;;23.98;10.57;;;;;;;;;;5097371;27;20035;-72
2022/10/14 11:32:24;;;;;;;22.45;10.32;;;;;;;;;;5130259;27;20119;-73
2022/10/14 11:34:54;;;;;;;22.83;10.50;;;;;;;;;;5116784;27;20118;-80
2022/10/14 11:37:33;;;;;;;26.85;10.93;;;;;;;;;;5120494;27;20042;-79
2022/10/14 11:40:09;;;;;;;26.92;11.90;;;;;;;;;;5112123;27;20491;-78
2022/10/14 11:42:38;;;;;;;23.00;10.88;;;;;;;;;;5104437;28;20807;-77
2022/10/14 11:45:13;;;;;;;26.77;11.52;;;;;;;;;;5085965;27;20418;-73
2022/10/14 11:47:40;;;;;;;23.52;11.45;;;;;;;;;;5115969;27;20040;-73
2022/10/14 11:50:15;;;;;;;30.63;12.38;;;;;;;;;;5100385;28;20051;-77
2022/10/14 11:53:02;;;;;;;28.42;12.63;;;;;;;;;;5095758;28;20039;-73
2022/10/14 11:55:28;;;;;;;;;;;;;;;;;;5066923;28;20080;-73
2022/10/14 11:57:59;;;;;;;30.42;12.43;;;;;;;;;;5075474;28;19922;-73
2022/10/14 12:00:28;;;;;;;27.27;12.35;;;;;;;;;;5075258;28;20150;-75
2022/10/14 12:03:10;;;;;;;30.73;13.80;;;;;;;;;;5087026;28;20048;-78
2022/10/14 12:05:36;;;;;;;33.22;13.70;;;;;;;;;;5070744;28;20044;-78
2022/10/14 12:08:24;;;;;;;31.13;14.13;;;;;;;;;;5078613;28;20040;-72
2022/10/14 12:11:29;;;;;;;32.97;13.63;;;;;;;;;;5069194;28;20485;-73
2022/10/14 12:14:08;;;;;;;34.50;15.23;;;;;;;;;;5012080;28;20047;-72
2022/10/14 12:16:35;;;;;;;38.72;15.32;;;;;;;;;;5049649;28;20094;-77
2022/10/14 12:19:01;;;;;;;38.42;15.75;;;;;;;;;;5065885;28;20040;-77
2022/10/14 12:21:32;;;;;;;36.67;15.27;;;;;;;;;;5092356;28;20038;-73
2022/10/14 12:24:04;;;;;;;33.50;15.32;;;;;;;;;;5074744;28;20522;-74
2022/10/14 12:26:33;;;;;;;37.95;15.70;;;;;;;;;;5090933;28;20516;-74
2022/10/14 12:29:02;;;;;;;33.53;15.70;;;;;;;;;;5092532;28;20040;-74
2022/10/14 12:31:28;;;;;;;37.92;15.00;;;;;;;;;;5091282;28;20032;-77
2022/10/14 12:34:12;;;;;;;27.10;13.73;;;;;;;;;;5091499;28;20048;-75
2022/10/14 12:36:39;;;;;;;27.10;13.20;;;;;;;;;;5076106;28;20528;-74
2022/10/14 12:39:17;;;;;;;23.92;12.32;;;;;;;;;;5075211;28;20036;-74
2022/10/14 12:41:47;;;;;;;20.35;11.18;;;;;;;;;;5089835;28;20043;-71
2022/10/14 12:44:17;;;;;;;17.42;10.90;;;;;;;;;;5089235;28;20040;-72
2022/10/14 12:46:44;;;;;;;18.48;10.80;;;;;;;;;;5084984;28;20044;-72
2022/10/14 12:49:18;;;;;;;17.02;10.02;;;;;;;;;;5086772;28;20040;-72
2022/10/14 12:51:54;;;;;;;13.00;8.88;;;;;;;;;;5087427;28;20381;-72
2022/10/14 12:54:21;;;;;;;12.48;8.90;;;;;;;;;;5068919;28;20497;-71
2022/10/14 12:56:53;;;;;;;12.27;8.38;;;;;;;;;;5106894;28;20032;-77
2022/10/14 12:59:22;;;;;;;13.70;9.02;;;;;;;;;;5105762;28;20476;-71
2022/10/14 13:01:53;;;;;;;11.10;8.02;;;;;;;;;;5119390;27;20393;-73
2022/10/14 13:04:19;;;;;;;12.00;8.65;;;;;;;;;;5107196;28;20400;-71
2022/10/14 13:07:06;;;;;;;12.65;8.82;;;;;;;;;;5105921;28;20040;-77
2022/10/14 13:09:33;;;;;;;13.98;9.27;;;;;;;;;;5112625;27;20043;-78
2022/10/14 13:11:59;;;;;;;14.50;9.63;;;;;;;;;;5096744;28;20097;-78
2022/10/14 13:14:28;;;;;;;14.25;9.30;;;;;;;;;;5118553;27;20035;-78
2022/10/14 13:16:56;;;;;;;13.93;9.02;;;;;;;;;;5113154;27;20036;-78
2022/10/14 13:19:31;;;;;;;14.13;9.63;;;;;;;;;;5094382;28;20058;-78
2022/10/14 13:21:58;;;;;;;12.93;9.20;;;;;;;;;;5092638;28;20044;-78
2022/10/14 13:24:27;;;;;;;12.82;8.77;;;;;;;;;;5108000;28;20031;-78
2022/10/14 13:26:53;;;;;;;12.70;8.70;;;;;;;;;;5109956;28;20043;-78
2022/10/14 13:29:19;;;;;;;13.57;9.85;;;;;;;;;;5106291;28;20387;-78
2022/10/14 13:31:54;;;;;;;12.68;8.88;;;;;;;;;;5103439;28;20502;-79
2022/10/14 13:34:26;;;;;;;14.90;9.75;;;;;;;;;;5101387;28;20509;-78
2022/10/14 13:36:52;;;;;;;14.50;10.02;;;;;;;;;;5092919;28;20069;-71
2022/10/14 13:39:19;;;;;;;15.38;9.68;;;;;;;;;;5090250;28;20082;-71
2022/10/14 13:41:46;;;;;;;15.23;10.10;;;;;;;;;;5091187;28;20507;-70
2022/10/14 13:44:12;;;;;;;16.98;11.52;;;;;;;;;;5090220;28;20044;-70
2022/10/14 13:46:43;;;;;;;15.27;10.43;;;;;;;;;;5062698;28;20040;-70
2022/10/14 13:49:19;;;;;;;14.65;10.88;;;;;;;;;;5090973;28;20055;-70
2022/10/14 13:51:48;;;;;;;14.05;10.30;;;;;;;;;;5090978;28;20123;-70
2022/10/14 13:54:16;;;;;;;16.77;10.55;;;;;;;;;;5103322;28;20120;-79
2022/10/14 13:56:42;;;;;;;17.85;10.50;;;;;;;;;;5090762;28;20044;-71
2022/10/14 13:59:22;;;;;;;16.40;10.68;;;;;;;;;;5090698;28;20036;-71
2022/10/14 14:01:49;;;;;;;15.32;10.50;;;;;;;;;;5087103;28;20114;-71
2022/10/14 14:04:23;;;;;;;15.38;10.45;;;;;;;;;;5080713;28;20074;-71
2022/10/14 14:06:50;;;;;;;15.10;10.27;;;;;;;;;;5090549;28;20043;-70
2022/10/14 14:09:19;;;;;;;13.65;10.35;;;;;;;;;;5106660;28;20127;-71
2022/10/14 14:11:46;;;;;;;13.48;10.30;;;;;;;;;;5099535;28;20040;-70
2022/10/14 14:14:18;;;;;;;22.80;17.98;;;;;;;;;;5099805;28;20054;-71
2022/10/14 14:16:51;;;;;;;15.10;10.68;;;;;;;;;;5110856;28;20063;-73
2022/10/14 14:19:28;;;;;;;12.65;9.93;;;;;;;;;;5110340;28;20476;-70
2022/10/14 14:22:13;;;;;;;12.20;9.65;;;;;;;;;;5108292;27;20520;-71
2022/10/14 14:24:39;;;;;;;16.45;11.90;;;;;;;;;;5122964;27;20050;-70
2022/10/14 14:27:05;;;;;;;15.27;11.35;;;;;;;;;;5123269;27;20042;-70
2022/10/14 14:29:32;;;;;;;21.63;13.30;;;;;;;;;;5105656;28;20516;-71